sensor_id;sensor_type;location;lat;lon;timestamp;temperature;humidity
15690;DHT22;7945;48.816;11.506;2022-07-18T00:02:03;21.40;53.00
15690;DHT22;7945;48.816;11.506;2022-07-18T00:04:30;21.30;53.00
15690;DHT22;7945;48.816;11.506;2022-07-18T00:06:58;21.20;53.00
15690;DHT22;7945;48.816;11.506;2022-07-18T00:09:25;21.20;52.80
15690;DHT22;7945;48.816;11.506;2022-07-18T00:11:52;21.10;52.70
15690;DHT22;7945;48.816;11.506;2022-07-18T00:14:20;21.10;52.90
15690;DHT22;7945;48.816;11.506;2022-07-18T00:16:48;21.00;53.00
15690;DHT22;7945;48.816;11.506;2022-07-18T00:19:15;20.90;53.20
15690;DHT22;7945;48.816;11.506;2022-07-18T00:21:42;20.80;54.00
15690;DHT22;7945;48.816;11.506;2022-07-18T00:24:11;20.80;54.20
15690;DHT22;7945;48.816;11.506;2022-07-18T00:26:38;20.80;54.20
15690;DHT22;7945;48.816;11.506;2022-07-18T00:29:04;20.80;54.40
15690;DHT22;7945;48.816;11.506;2022-07-18T00:31:31;20.80;54.70
15690;DHT22;7945;48.816;11.506;2022-07-18T00:33:59;20.80;54.60
15690;DHT22;7945;48.816;11.506;2022-07-18T00:36:26;20.70;54.70
15690;DHT22;7945;48.816;11.506;2022-07-18T00:38:53;20.70;54.40
15690;DHT22;7945;48.816;11.506;2022-07-18T00:41:21;20.70;54.40
15690;DHT22;7945;48.816;11.506;2022-07-18T00:43:49;20.60;54.80
15690;DHT22;7945;48.816;11.506;2022-07-18T00:46:19;20.50;54.70
15690;DHT22;7945;48.816;11.506;2022-07-18T00:48:46;20.60;54.90
15690;DHT22;7945;48.816;11.506;2022-07-18T00:51:13;20.50;55.00
15690;DHT22;7945;48.816;11.506;2022-07-18T00:53:40;20.50;54.80
15690;DHT22;7945;48.816;11.506;2022-07-18T00:56:07;20.50;54.60
15690;DHT22;7945;48.816;11.506;2022-07-18T00:58:35;20.40;55.10
15690;DHT22;7945;48.816;11.506;2022-07-18T01:01:03;20.40;54.60
15690;DHT22;7945;48.816;11.506;2022-07-18T01:03:48;20.30;54.90
15690;DHT22;7945;48.816;11.506;2022-07-18T01:06:15;20.30;55.10
15690;DHT22;7945;48.816;11.506;2022-07-18T01:08:42;20.20;55.00
15690;DHT22;7945;48.816;11.506;2022-07-18T01:11:10;20.20;55.60
15690;DHT22;7945;48.816;11.506;2022-07-18T01:13:38;20.10;55.00
15690;DHT22;7945;48.816;11.506;2022-07-18T01:16:06;20.00;55.20
15690;DHT22;7945;48.816;11.506;2022-07-18T01:18:34;20.00;55.20
15690;DHT22;7945;48.816;11.506;2022-07-18T01:21:02;20.00;55.10
15690;DHT22;7945;48.816;11.506;2022-07-18T01:23:29;19.90;55.10
15690;DHT22;7945;48.816;11.506;2022-07-18T01:25:56;20.00;55.30
15690;DHT22;7945;48.816;11.506;2022-07-18T01:28:23;20.00;55.30
15690;DHT22;7945;48.816;11.506;2022-07-18T01:30:50;20.00;55.60
15690;DHT22;7945;48.816;11.506;2022-07-18T01:33:17;19.90;55.60
15690;DHT22;7945;48.816;11.506;2022-07-18T01:35:43;19.80;55.60
15690;DHT22;7945;48.816;11.506;2022-07-18T01:38:12;19.80;56.00
15690;DHT22;7945;48.816;11.506;2022-07-18T01:40:39;19.80;55.80
15690;DHT22;7945;48.816;11.506;2022-07-18T01:43:06;19.80;55.60
15690;DHT22;7945;48.816;11.506;2022-07-18T01:45:33;19.70;55.70
15690;DHT22;7945;48.816;11.506;2022-07-18T01:48:01;19.70;56.00
15690;DHT22;7945;48.816;11.506;2022-07-18T01:50:28;19.70;55.80
15690;DHT22;7945;48.816;11.506;2022-07-18T01:52:55;19.70;56.10
15690;DHT22;7945;48.816;11.506;2022-07-18T01:55:23;19.60;56.00
15690;DHT22;7945;48.816;11.506;2022-07-18T01:57:50;19.50;55.90
15690;DHT22;7945;48.816;11.506;2022-07-18T02:00:17;19.50;56.10
15690;DHT22;7945;48.816;11.506;2022-07-18T02:02:44;19.50;56.20
15690;DHT22;7945;48.816;11.506;2022-07-18T02:05:10;19.40;56.40
15690;DHT22;7945;48.816;11.506;2022-07-18T02:07:39;19.40;56.30
15690;DHT22;7945;48.816;11.506;2022-07-18T02:10:08;19.40;56.70
15690;DHT22;7945;48.816;11.506;2022-07-18T02:12:37;19.40;56.20
15690;DHT22;7945;48.816;11.506;2022-07-18T02:15:05;19.40;56.40
15690;DHT22;7945;48.816;11.506;2022-07-18T02:17:33;19.40;56.50
15690;DHT22;7945;48.816;11.506;2022-07-18T02:20:00;19.30;56.50
15690;DHT22;7945;48.816;11.506;2022-07-18T02:22:27;19.30;56.60
15690;DHT22;7945;48.816;11.506;2022-07-18T02:24:54;19.30;56.70
15690;DHT22;7945;48.816;11.506;2022-07-18T02:27:21;19.30;56.80
15690;DHT22;7945;48.816;11.506;2022-07-18T02:29:49;19.20;56.40
15690;DHT22;7945;48.816;11.506;2022-07-18T02:32:16;19.20;56.70
15690;DHT22;7945;48.816;11.506;2022-07-18T02:34:43;19.20;56.60
15690;DHT22;7945;48.816;11.506;2022-07-18T02:37:11;19.10;56.60
15690;DHT22;7945;48.816;11.506;2022-07-18T02:39:37;19.10;57.30
15690;DHT22;7945;48.816;11.506;2022-07-18T02:42:06;19.10;57.90
15690;DHT22;7945;48.816;11.506;2022-07-18T02:44:33;19.00;57.70
15690;DHT22;7945;48.816;11.506;2022-07-18T02:47:02;19.00;57.80
15690;DHT22;7945;48.816;11.506;2022-07-18T02:49:29;19.10;57.80
15690;DHT22;7945;48.816;11.506;2022-07-18T02:51:59;19.00;58.40
15690;DHT22;7945;48.816;11.506;2022-07-18T02:54:27;19.00;57.60
15690;DHT22;7945;48.816;11.506;2022-07-18T02:56:54;19.00;57.70
15690;DHT22;7945;48.816;11.506;2022-07-18T02:59:21;18.90;57.90
15690;DHT22;7945;48.816;11.506;2022-07-18T03:01:48;18.90;58.40
15690;DHT22;7945;48.816;11.506;2022-07-18T03:04:17;18.90;58.20
15690;DHT22;7945;48.816;11.506;2022-07-18T03:06:44;18.80;58.30
15690;DHT22;7945;48.816;11.506;2022-07-18T03:09:11;18.80;58.40
15690;DHT22;7945;48.816;11.506;2022-07-18T03:11:38;18.80;58.40
15690;DHT22;7945;48.816;11.506;2022-07-18T03:14:06;18.70;58.20
15690;DHT22;7945;48.816;11.506;2022-07-18T03:16:33;18.80;58.50
15690;DHT22;7945;48.816;11.506;2022-07-18T03:19:00;18.70;58.40
15690;DHT22;7945;48.816;11.506;2022-07-18T03:21:28;18.70;58.50
15690;DHT22;7945;48.816;11.506;2022-07-18T03:23:55;18.70;58.90
15690;DHT22;7945;48.816;11.506;2022-07-18T03:26:22;18.70;58.50
15690;DHT22;7945;48.816;11.506;2022-07-18T03:28:49;18.60;58.50
15690;DHT22;7945;48.816;11.506;2022-07-18T03:31:16;18.60;58.60
15690;DHT22;7945;48.816;11.506;2022-07-18T03:33:43;18.50;58.80
15690;DHT22;7945;48.816;11.506;2022-07-18T03:36:09;18.50;58.90
15690;DHT22;7945;48.816;11.506;2022-07-18T03:38:38;18.40;59.00
15690;DHT22;7945;48.816;11.506;2022-07-18T03:41:08;18.40;59.20
15690;DHT22;7945;48.816;11.506;2022-07-18T03:43:35;18.40;59.30
15690;DHT22;7945;48.816;11.506;2022-07-18T03:46:02;18.40;59.30
15690;DHT22;7945;48.816;11.506;2022-07-18T03:48:29;18.40;59.30
15690;DHT22;7945;48.816;11.506;2022-07-18T03:50:56;18.40;59.30
15690;DHT22;7945;48.816;11.506;2022-07-18T03:53:23;18.40;59.20
15690;DHT22;7945;48.816;11.506;2022-07-18T03:55:51;18.40;59.30
15690;DHT22;7945;48.816;11.506;2022-07-18T03:58:18;18.40;59.40
15690;DHT22;7945;48.816;11.506;2022-07-18T04:00:45;18.50;59.40
15690;DHT22;7945;48.816;11.506;2022-07-18T04:03:12;18.50;60.10
15690;DHT22;7945;48.816;11.506;2022-07-18T04:05:39;18.50;59.50
15690;DHT22;7945;48.816;11.506;2022-07-18T04:08:06;18.50;59.40
15690;DHT22;7945;48.816;11.506;2022-07-18T04:10:32;18.50;59.40
15690;DHT22;7945;48.816;11.506;2022-07-18T04:13:01;18.60;59.50
15690;DHT22;7945;48.816;11.506;2022-07-18T04:15:29;18.60;59.40
15690;DHT22;7945;48.816;11.506;2022-07-18T04:17:57;18.60;59.50
15690;DHT22;7945;48.816;11.506;2022-07-18T04:20:24;18.70;59.50
15690;DHT22;7945;48.816;11.506;2022-07-18T04:22:53;18.70;59.60
15690;DHT22;7945;48.816;11.506;2022-07-18T04:25:21;18.80;59.60
15690;DHT22;7945;48.816;11.506;2022-07-18T04:27:49;18.80;59.70
15690;DHT22;7945;48.816;11.506;2022-07-18T04:30:19;18.90;59.70
15690;DHT22;7945;48.816;11.506;2022-07-18T04:32:46;19.30;59.10
15690;DHT22;7945;48.816;11.506;2022-07-18T04:35:13;20.00;58.20
15690;DHT22;7945;48.816;11.506;2022-07-18T04:37:40;20.40;57.30
15690;DHT22;7945;48.816;11.506;2022-07-18T04:40:09;20.50;57.10
15690;DHT22;7945;48.816;11.506;2022-07-18T04:42:36;20.80;56.60
15690;DHT22;7945;48.816;11.506;2022-07-18T04:45:05;21.30;56.30
15690;DHT22;7945;48.816;11.506;2022-07-18T04:47:34;21.80;54.90
15690;DHT22;7945;48.816;11.506;2022-07-18T04:50:01;22.50;53.60
15690;DHT22;7945;48.816;11.506;2022-07-18T04:52:35;23.60;52.00
15690;DHT22;7945;48.816;11.506;2022-07-18T04:55:04;24.70;50.30
15690;DHT22;7945;48.816;11.506;2022-07-18T04:57:31;25.20;49.90
15690;DHT22;7945;48.816;11.506;2022-07-18T04:59:57;25.70;49.30
15690;DHT22;7945;48.816;11.506;2022-07-18T05:02:24;26.50;48.90
15690;DHT22;7945;48.816;11.506;2022-07-18T05:04:52;27.40;47.90
15690;DHT22;7945;48.816;11.506;2022-07-18T05:07:19;28.20;46.70
15690;DHT22;7945;48.816;11.506;2022-07-18T05:09:46;29.00;45.40
15690;DHT22;7945;48.816;11.506;2022-07-18T05:12:13;29.80;44.70
15690;DHT22;7945;48.816;11.506;2022-07-18T05:14:40;30.50;43.50
15690;DHT22;7945;48.816;11.506;2022-07-18T05:17:07;30.90;43.60
15690;DHT22;7945;48.816;11.506;2022-07-18T05:19:34;31.00;42.70
15690;DHT22;7945;48.816;11.506;2022-07-18T05:22:02;30.90;42.60
15690;DHT22;7945;48.816;11.506;2022-07-18T05:24:29;31.00;42.70
15690;DHT22;7945;48.816;11.506;2022-07-18T05:26:56;31.00;42.60
15690;DHT22;7945;48.816;11.506;2022-07-18T05:29:22;31.20;42.60
15690;DHT22;7945;48.816;11.506;2022-07-18T05:31:49;31.50;42.50
15690;DHT22;7945;48.816;11.506;2022-07-18T05:34:16;31.80;42.30
15690;DHT22;7945;48.816;11.506;2022-07-18T05:36:43;31.50;42.30
15690;DHT22;7945;48.816;11.506;2022-07-18T05:39:12;31.20;42.90
15690;DHT22;7945;48.816;11.506;2022-07-18T05:41:39;31.10;42.40
15690;DHT22;7945;48.816;11.506;2022-07-18T05:44:05;31.00;42.90
15690;DHT22;7945;48.816;11.506;2022-07-18T05:46:32;30.80;42.70
15690;DHT22;7945;48.816;11.506;2022-07-18T05:48:59;30.50;43.80
15690;DHT22;7945;48.816;11.506;2022-07-18T05:51:26;30.40;43.50
15690;DHT22;7945;48.816;11.506;2022-07-18T05:53:53;30.60;43.70
15690;DHT22;7945;48.816;11.506;2022-07-18T05:56:21;30.90;43.30
15690;DHT22;7945;48.816;11.506;2022-07-18T05:58:48;30.90;42.50
15690;DHT22;7945;48.816;11.506;2022-07-18T06:01:15;30.80;42.90
15690;DHT22;7945;48.816;11.506;2022-07-18T06:03:45;30.70;43.10
15690;DHT22;7945;48.816;11.506;2022-07-18T06:06:12;30.40;43.30
15690;DHT22;7945;48.816;11.506;2022-07-18T06:08:39;29.90;44.30
15690;DHT22;7945;48.816;11.506;2022-07-18T06:14:34;28.90;44.40
15690;DHT22;7945;48.816;11.506;2022-07-18T06:17:01;28.40;45.20
15690;DHT22;7945;48.816;11.506;2022-07-18T06:19:27;28.00;46.00
15690;DHT22;7945;48.816;11.506;2022-07-18T06:21:54;27.80;46.20
15690;DHT22;7945;48.816;11.506;2022-07-18T06:24:21;27.40;47.40
15690;DHT22;7945;48.816;11.506;2022-07-18T06:26:48;27.10;47.60
15690;DHT22;7945;48.816;11.506;2022-07-18T06:29:16;26.70;47.80
15690;DHT22;7945;48.816;11.506;2022-07-18T06:31:44;26.60;48.00
15690;DHT22;7945;48.816;11.506;2022-07-18T06:34:11;26.40;48.30
15690;DHT22;7945;48.816;11.506;2022-07-18T06:36:38;26.20;48.50
15690;DHT22;7945;48.816;11.506;2022-07-18T06:39:05;26.10;49.00
15690;DHT22;7945;48.816;11.506;2022-07-18T06:41:36;26.10;49.30
15690;DHT22;7945;48.816;11.506;2022-07-18T06:44:03;26.10;49.10
15690;DHT22;7945;48.816;11.506;2022-07-18T06:46:30;26.10;49.20
15690;DHT22;7945;48.816;11.506;2022-07-18T06:48:59;25.80;49.40
15690;DHT22;7945;48.816;11.506;2022-07-18T06:51:25;25.70;49.80
15690;DHT22;7945;48.816;11.506;2022-07-18T06:53:52;25.60;50.30
15690;DHT22;7945;48.816;11.506;2022-07-18T06:56:19;25.60;50.40
15690;DHT22;7945;48.816;11.506;2022-07-18T06:58:46;25.50;50.60
15690;DHT22;7945;48.816;11.506;2022-07-18T07:01:16;25.40;50.70
15690;DHT22;7945;48.816;11.506;2022-07-18T07:03:43;25.40;50.90
15690;DHT22;7945;48.816;11.506;2022-07-18T07:06:11;25.20;51.00
15690;DHT22;7945;48.816;11.506;2022-07-18T07:08:38;25.30;51.30
15690;DHT22;7945;48.816;11.506;2022-07-18T07:11:05;25.40;50.90
15690;DHT22;7945;48.816;11.506;2022-07-18T07:13:33;25.40;51.00
15690;DHT22;7945;48.816;11.506;2022-07-18T07:16:00;25.30;50.90
15690;DHT22;7945;48.816;11.506;2022-07-18T07:18:27;25.30;51.00
15690;DHT22;7945;48.816;11.506;2022-07-18T07:20:55;25.20;51.20
15690;DHT22;7945;48.816;11.506;2022-07-18T07:23:23;25.20;51.30
15690;DHT22;7945;48.816;11.506;2022-07-18T07:25:50;25.30;51.40
15690;DHT22;7945;48.816;11.506;2022-07-18T07:28:17;25.20;51.30
15690;DHT22;7945;48.816;11.506;2022-07-18T07:30:44;25.30;51.60
15690;DHT22;7945;48.816;11.506;2022-07-18T07:33:11;25.30;51.50
15690;DHT22;7945;48.816;11.506;2022-07-18T07:35:37;25.20;51.90
15690;DHT22;7945;48.816;11.506;2022-07-18T07:38:04;25.20;51.30
15690;DHT22;7945;48.816;11.506;2022-07-18T07:40:33;25.30;51.50
15690;DHT22;7945;48.816;11.506;2022-07-18T07:43:07;25.30;51.30
15690;DHT22;7945;48.816;11.506;2022-07-18T07:45:35;25.40;51.70
15690;DHT22;7945;48.816;11.506;2022-07-18T07:48:02;25.40;51.10
15690;DHT22;7945;48.816;11.506;2022-07-18T07:50:29;25.40;51.10
15690;DHT22;7945;48.816;11.506;2022-07-18T07:52:56;25.50;51.00
15690;DHT22;7945;48.816;11.506;2022-07-18T07:55:23;25.50;50.70
15690;DHT22;7945;48.816;11.506;2022-07-18T07:57:52;25.60;50.60
15690;DHT22;7945;48.816;11.506;2022-07-18T08:00:20;25.80;50.50
15690;DHT22;7945;48.816;11.506;2022-07-18T08:02:51;25.90;50.30
15690;DHT22;7945;48.816;11.506;2022-07-18T08:05:18;25.90;50.10
15690;DHT22;7945;48.816;11.506;2022-07-18T08:07:45;26.00;49.80
15690;DHT22;7945;48.816;11.506;2022-07-18T08:10:12;26.00;50.00
15690;DHT22;7945;48.816;11.506;2022-07-18T08:12:39;26.10;50.00
15690;DHT22;7945;48.816;11.506;2022-07-18T08:15:09;26.10;49.80
15690;DHT22;7945;48.816;11.506;2022-07-18T08:17:36;26.20;49.50
15690;DHT22;7945;48.816;11.506;2022-07-18T08:20:04;26.20;49.60
15690;DHT22;7945;48.816;11.506;2022-07-18T08:22:31;26.30;49.80
15690;DHT22;7945;48.816;11.506;2022-07-18T08:24:58;26.30;49.50
15690;DHT22;7945;48.816;11.506;2022-07-18T08:27:25;26.40;50.10
15690;DHT22;7945;48.816;11.506;2022-07-18T08:29:52;26.40;49.20
15690;DHT22;7945;48.816;11.506;2022-07-18T08:32:20;26.40;49.30
15690;DHT22;7945;48.816;11.506;2022-07-18T08:34:47;26.50;49.40
15690;DHT22;7945;48.816;11.506;2022-07-18T08:37:14;26.60;48.90
15690;DHT22;7945;48.816;11.506;2022-07-18T08:39:40;26.70;49.40
15690;DHT22;7945;48.816;11.506;2022-07-18T08:42:08;26.70;48.60
15690;DHT22;7945;48.816;11.506;2022-07-18T08:44:36;26.80;48.40
15690;DHT22;7945;48.816;11.506;2022-07-18T08:47:06;26.90;48.60
15690;DHT22;7945;48.816;11.506;2022-07-18T08:49:36;26.90;48.40
15690;DHT22;7945;48.816;11.506;2022-07-18T08:52:05;27.00;48.30
15690;DHT22;7945;48.816;11.506;2022-07-18T08:54:32;27.10;47.80
15690;DHT22;7945;48.816;11.506;2022-07-18T08:56:59;27.20;47.80
15690;DHT22;7945;48.816;11.506;2022-07-18T08:59:26;27.20;47.80
15690;DHT22;7945;48.816;11.506;2022-07-18T09:01:53;27.30;48.00
15690;DHT22;7945;48.816;11.506;2022-07-18T09:04:37;27.30;47.90
15690;DHT22;7945;48.816;11.506;2022-07-18T09:07:05;27.30;47.10
15690;DHT22;7945;48.816;11.506;2022-07-18T09:09:34;27.30;47.80
15690;DHT22;7945;48.816;11.506;2022-07-18T09:12:03;27.30;48.00
15690;DHT22;7945;48.816;11.506;2022-07-18T09:14:33;27.30;47.20
15690;DHT22;7945;48.816;11.506;2022-07-18T09:17:08;27.30;47.50
15690;DHT22;7945;48.816;11.506;2022-07-18T09:19:38;27.40;47.10
15690;DHT22;7945;48.816;11.506;2022-07-18T09:22:20;27.40;46.90
15690;DHT22;7945;48.816;11.506;2022-07-18T09:25:06;27.50;46.20
15690;DHT22;7945;48.816;11.506;2022-07-18T09:27:36;27.60;46.00
15690;DHT22;7945;48.816;11.506;2022-07-18T09:30:23;27.70;45.50
15690;DHT22;7945;48.816;11.506;2022-07-18T09:32:53;27.90;43.80
15690;DHT22;7945;48.816;11.506;2022-07-18T09:35:25;28.00;43.70
15690;DHT22;7945;48.816;11.506;2022-07-18T09:37:58;27.90;43.50
15690;DHT22;7945;48.816;11.506;2022-07-18T09:40:27;28.00;43.50
15690;DHT22;7945;48.816;11.506;2022-07-18T09:42:56;28.20;43.80
15690;DHT22;7945;48.816;11.506;2022-07-18T09:45:25;28.30;43.80
15690;DHT22;7945;48.816;11.506;2022-07-18T09:47:53;28.60;43.70
15690;DHT22;7945;48.816;11.506;2022-07-18T09:50:28;28.70;43.60
15690;DHT22;7945;48.816;11.506;2022-07-18T09:53:04;29.00;42.50
15690;DHT22;7945;48.816;11.506;2022-07-18T09:55:32;29.20;42.20
15690;DHT22;7945;48.816;11.506;2022-07-18T09:58:02;29.30;40.80
15690;DHT22;7945;48.816;11.506;2022-07-18T10:00:30;29.40;40.20
15690;DHT22;7945;48.816;11.506;2022-07-18T10:02:58;29.50;41.70
15690;DHT22;7945;48.816;11.506;2022-07-18T10:05:31;29.70;41.60
15690;DHT22;7945;48.816;11.506;2022-07-18T10:08:00;29.80;41.00
15690;DHT22;7945;48.816;11.506;2022-07-18T10:10:28;29.80;40.40
15690;DHT22;7945;48.816;11.506;2022-07-18T10:12:57;29.80;41.10
15690;DHT22;7945;48.816;11.506;2022-07-18T10:15:25;29.80;40.60
15690;DHT22;7945;48.816;11.506;2022-07-18T10:17:52;29.80;40.60
15690;DHT22;7945;48.816;11.506;2022-07-18T10:20:26;29.90;40.80
15690;DHT22;7945;48.816;11.506;2022-07-18T10:22:59;30.00;40.50
15690;DHT22;7945;48.816;11.506;2022-07-18T10:25:27;30.20;41.30
15690;DHT22;7945;48.816;11.506;2022-07-18T10:28:03;30.30;41.00
15690;DHT22;7945;48.816;11.506;2022-07-18T10:30:41;30.40;40.20
15690;DHT22;7945;48.816;11.506;2022-07-18T10:33:40;30.50;40.00
15690;DHT22;7945;48.816;11.506;2022-07-18T10:36:10;30.60;40.30
15690;DHT22;7945;48.816;11.506;2022-07-18T10:39:04;30.60;39.40
15690;DHT22;7945;48.816;11.506;2022-07-18T10:41:32;30.60;38.80
15690;DHT22;7945;48.816;11.506;2022-07-18T10:43:59;30.70;39.70
15690;DHT22;7945;48.816;11.506;2022-07-18T10:47:03;30.70;40.00
15690;DHT22;7945;48.816;11.506;2022-07-18T10:50:01;30.80;38.90
15690;DHT22;7945;48.816;11.506;2022-07-18T10:52:56;30.80;38.90
15690;DHT22;7945;48.816;11.506;2022-07-18T10:55:32;30.80;39.10
15690;DHT22;7945;48.816;11.506;2022-07-18T10:58:18;30.80;38.70
15690;DHT22;7945;48.816;11.506;2022-07-18T11:00:48;30.70;39.00
15690;DHT22;7945;48.816;11.506;2022-07-18T11:03:16;30.70;38.60
15690;DHT22;7945;48.816;11.506;2022-07-18T11:05:45;30.70;38.90
15690;DHT22;7945;48.816;11.506;2022-07-18T11:08:16;30.60;38.80
15690;DHT22;7945;48.816;11.506;2022-07-18T11:11:04;30.70;38.80
15690;DHT22;7945;48.816;11.506;2022-07-18T11:13:33;30.70;38.50
15690;DHT22;7945;48.816;11.506;2022-07-18T11:16:03;30.80;38.70
15690;DHT22;7945;48.816;11.506;2022-07-18T11:18:33;30.90;39.30
15690;DHT22;7945;48.816;11.506;2022-07-18T11:21:21;31.00;39.10
15690;DHT22;7945;48.816;11.506;2022-07-18T11:23:50;31.10;39.80
15690;DHT22;7945;48.816;11.506;2022-07-18T11:26:21;31.20;39.00
15690;DHT22;7945;48.816;11.506;2022-07-18T11:28:56;31.30;38.70
15690;DHT22;7945;48.816;11.506;2022-07-18T11:31:23;31.40;38.80
15690;DHT22;7945;48.816;11.506;2022-07-18T11:33:51;31.30;38.60
15690;DHT22;7945;48.816;11.506;2022-07-18T11:36:20;31.30;38.50
15690;DHT22;7945;48.816;11.506;2022-07-18T11:38:48;31.50;38.40
15690;DHT22;7945;48.816;11.506;2022-07-18T11:41:16;31.60;38.20
15690;DHT22;7945;48.816;11.506;2022-07-18T11:43:46;31.50;38.30
15690;DHT22;7945;48.816;11.506;2022-07-18T11:46:15;31.50;38.30
15690;DHT22;7945;48.816;11.506;2022-07-18T11:48:44;31.60;38.30
15690;DHT22;7945;48.816;11.506;2022-07-18T11:51:12;31.60;38.50
15690;DHT22;7945;48.816;11.506;2022-07-18T11:53:43;31.60;38.00
15690;DHT22;7945;48.816;11.506;2022-07-18T11:56:10;31.50;38.70
15690;DHT22;7945;48.816;11.506;2022-07-18T11:58:38;31.60;37.60
15690;DHT22;7945;48.816;11.506;2022-07-18T12:01:07;31.50;38.20
15690;DHT22;7945;48.816;11.506;2022-07-18T12:03:34;31.70;38.10
15690;DHT22;7945;48.816;11.506;2022-07-18T12:06:10;31.60;38.60
15690;DHT22;7945;48.816;11.506;2022-07-18T12:08:40;31.80;38.20
15690;DHT22;7945;48.816;11.506;2022-07-18T12:11:13;31.80;38.00
15690;DHT22;7945;48.816;11.506;2022-07-18T12:13:45;31.90;38.00
15690;DHT22;7945;48.816;11.506;2022-07-18T12:16:31;32.00;37.40
15690;DHT22;7945;48.816;11.506;2022-07-18T12:19:01;32.00;37.40
15690;DHT22;7945;48.816;11.506;2022-07-18T12:21:39;32.10;38.00
15690;DHT22;7945;48.816;11.506;2022-07-18T12:24:22;32.20;37.30
15690;DHT22;7945;48.816;11.506;2022-07-18T12:27:10;32.30;37.50
15690;DHT22;7945;48.816;11.506;2022-07-18T12:30:02;32.30;38.40
15690;DHT22;7945;48.816;11.506;2022-07-18T12:32:38;32.30;38.30
15690;DHT22;7945;48.816;11.506;2022-07-18T12:35:08;32.40;37.80
15690;DHT22;7945;48.816;11.506;2022-07-18T12:37:35;32.40;37.70
15690;DHT22;7945;48.816;11.506;2022-07-18T12:40:04;32.50;37.20
15690;DHT22;7945;48.816;11.506;2022-07-18T12:42:33;32.40;37.20
15690;DHT22;7945;48.816;11.506;2022-07-18T12:45:01;32.40;37.30
15690;DHT22;7945;48.816;11.506;2022-07-18T12:47:28;32.40;37.20
15690;DHT22;7945;48.816;11.506;2022-07-18T12:49:56;32.40;37.10
15690;DHT22;7945;48.816;11.506;2022-07-18T12:52:24;32.40;37.10
15690;DHT22;7945;48.816;11.506;2022-07-18T12:54:51;32.30;37.10
15690;DHT22;7945;48.816;11.506;2022-07-18T12:57:18;32.30;37.20
15690;DHT22;7945;48.816;11.506;2022-07-18T12:59:46;32.20;37.30
15690;DHT22;7945;48.816;11.506;2022-07-18T13:02:14;32.20;37.30
15690;DHT22;7945;48.816;11.506;2022-07-18T13:04:41;32.20;37.70
15690;DHT22;7945;48.816;11.506;2022-07-18T13:07:10;32.30;37.30
15690;DHT22;7945;48.816;11.506;2022-07-18T13:09:37;32.20;37.30
15690;DHT22;7945;48.816;11.506;2022-07-18T13:12:04;32.20;37.50
15690;DHT22;7945;48.816;11.506;2022-07-18T13:14:32;32.20;38.10
15690;DHT22;7945;48.816;11.506;2022-07-18T13:17:03;32.30;37.60
15690;DHT22;7945;48.816;11.506;2022-07-18T13:19:29;32.30;37.60
15690;DHT22;7945;48.816;11.506;2022-07-18T13:21:58;32.40;37.50
15690;DHT22;7945;48.816;11.506;2022-07-18T13:24:26;32.50;37.30
15690;DHT22;7945;48.816;11.506;2022-07-18T13:26:54;32.50;37.40
15690;DHT22;7945;48.816;11.506;2022-07-18T13:29:21;32.60;37.00
15690;DHT22;7945;48.816;11.506;2022-07-18T13:31:49;32.50;37.40
15690;DHT22;7945;48.816;11.506;2022-07-18T13:34:17;32.50;37.80
15690;DHT22;7945;48.816;11.506;2022-07-18T13:36:47;32.50;37.30
15690;DHT22;7945;48.816;11.506;2022-07-18T13:39:14;32.50;37.30
15690;DHT22;7945;48.816;11.506;2022-07-18T13:41:42;32.40;37.30
15690;DHT22;7945;48.816;11.506;2022-07-18T13:44:09;32.40;37.50
15690;DHT22;7945;48.816;11.506;2022-07-18T13:46:36;32.40;37.10
15690;DHT22;7945;48.816;11.506;2022-07-18T13:49:06;32.40;37.50
15690;DHT22;7945;48.816;11.506;2022-07-18T13:51:33;32.40;36.90
15690;DHT22;7945;48.816;11.506;2022-07-18T13:54:00;32.30;37.30
15690;DHT22;7945;48.816;11.506;2022-07-18T13:56:27;32.30;37.70
15690;DHT22;7945;48.816;11.506;2022-07-18T13:58:55;32.40;37.70
15690;DHT22;7945;48.816;11.506;2022-07-18T14:01:22;32.50;37.60
15690;DHT22;7945;48.816;11.506;2022-07-18T14:03:49;32.70;37.80
15690;DHT22;7945;48.816;11.506;2022-07-18T14:06:16;32.70;36.80
15690;DHT22;7945;48.816;11.506;2022-07-18T14:08:43;32.70;36.70
15690;DHT22;7945;48.816;11.506;2022-07-18T14:11:10;32.70;36.80
15690;DHT22;7945;48.816;11.506;2022-07-18T14:13:36;32.70;37.90
15690;DHT22;7945;48.816;11.506;2022-07-18T14:16:05;32.80;37.30
15690;DHT22;7945;48.816;11.506;2022-07-18T14:18:32;32.90;37.90
15690;DHT22;7945;48.816;11.506;2022-07-18T14:20:59;32.90;37.40
15690;DHT22;7945;48.816;11.506;2022-07-18T14:23:26;32.90;37.40
15690;DHT22;7945;48.816;11.506;2022-07-18T14:25:53;32.90;37.80
15690;DHT22;7945;48.816;11.506;2022-07-18T14:28:20;32.90;37.30
15690;DHT22;7945;48.816;11.506;2022-07-18T14:30:47;32.90;37.10
15690;DHT22;7945;48.816;11.506;2022-07-18T14:33:15;32.90;37.30
15690;DHT22;7945;48.816;11.506;2022-07-18T14:35:42;32.80;37.10
15690;DHT22;7945;48.816;11.506;2022-07-18T14:38:09;32.80;37.10
15690;DHT22;7945;48.816;11.506;2022-07-18T14:40:36;32.70;37.20
15690;DHT22;7945;48.816;11.506;2022-07-18T14:43:02;32.80;37.30
15690;DHT22;7945;48.816;11.506;2022-07-18T14:45:29;32.80;37.10
15690;DHT22;7945;48.816;11.506;2022-07-18T14:47:56;32.80;37.50
15690;DHT22;7945;48.816;11.506;2022-07-18T14:50:25;32.80;37.20
15690;DHT22;7945;48.816;11.506;2022-07-18T14:52:52;32.90;36.80
15690;DHT22;7945;48.816;11.506;2022-07-18T14:55:18;32.80;37.00
15690;DHT22;7945;48.816;11.506;2022-07-18T14:57:45;32.70;36.80
15690;DHT22;7945;48.816;11.506;2022-07-18T15:00:13;32.70;37.90
15690;DHT22;7945;48.816;11.506;2022-07-18T15:02:40;32.70;37.10
15690;DHT22;7945;48.816;11.506;2022-07-18T15:05:07;32.70;37.80
15690;DHT22;7945;48.816;11.506;2022-07-18T15:07:36;32.80;38.50
15690;DHT22;7945;48.816;11.506;2022-07-18T15:10:04;32.70;37.10
15690;DHT22;7945;48.816;11.506;2022-07-18T15:12:31;32.60;36.80
15690;DHT22;7945;48.816;11.506;2022-07-18T15:14:58;32.50;37.30
15690;DHT22;7945;48.816;11.506;2022-07-18T15:17:25;32.30;37.00
15690;DHT22;7945;48.816;11.506;2022-07-18T15:19:52;32.20;37.40
15690;DHT22;7945;48.816;11.506;2022-07-18T15:22:19;32.20;37.80
15690;DHT22;7945;48.816;11.506;2022-07-18T15:24:47;32.30;37.30
15690;DHT22;7945;48.816;11.506;2022-07-18T15:27:14;32.20;37.30
15690;DHT22;7945;48.816;11.506;2022-07-18T15:29:41;32.20;37.70
15690;DHT22;7945;48.816;11.506;2022-07-18T15:32:08;32.30;37.70
15690;DHT22;7945;48.816;11.506;2022-07-18T15:34:35;32.30;38.00
15690;DHT22;7945;48.816;11.506;2022-07-18T15:37:03;32.30;37.80
15690;DHT22;7945;48.816;11.506;2022-07-18T15:39:30;32.30;37.50
15690;DHT22;7945;48.816;11.506;2022-07-18T15:41:58;32.30;37.40
15690;DHT22;7945;48.816;11.506;2022-07-18T15:44:26;32.40;37.50